createdAt,value
2023-02-06T00:00:55.417Z,14.47
2023-02-06T00:03:24.399Z,15.73
2023-02-06T00:05:58.693Z,19.20
2023-02-06T00:08:29.925Z,14.97
2023-02-06T00:10:59.022Z,14.53
2023-02-06T00:13:28.259Z,14.40
2023-02-06T00:15:57.179Z,14.10
2023-02-06T00:18:26.875Z,14.80
2023-02-06T00:20:56.395Z,14.97
2023-02-06T00:23:25.506Z,12.43
2023-02-06T00:25:56.930Z,15.50
2023-02-06T00:29:05.432Z,13.90
2023-02-06T00:31:35.027Z,16.60
2023-02-06T00:34:04.635Z,15.03
2023-02-06T00:36:34.636Z,11.50
2023-02-06T00:39:03.710Z,12.97
2023-02-06T00:41:34.209Z,16.17
2023-02-06T00:44:03.368Z,14.47
2023-02-06T00:46:32.849Z,13.23
2023-02-06T00:49:02.209Z,16.70
2023-02-06T00:51:36.341Z,15.77
2023-02-06T00:54:05.581Z,13.20
2023-02-06T00:56:36.723Z,13.17
2023-02-06T00:59:06.112Z,14.70
2023-02-06T01:01:35.535Z,16.80
2023-02-06T01:04:04.375Z,15.00
2023-02-06T01:06:33.246Z,14.73
2023-02-06T01:09:02.306Z,15.20
2023-02-06T01:12:03.427Z,13.43
2023-02-06T01:14:32.666Z,12.83
2023-02-06T01:17:02.171Z,13.93
2023-02-06T01:19:31.538Z,15.43
2023-02-06T01:22:00.608Z,12.77
2023-02-06T01:24:29.869Z,12.47
2023-02-06T01:26:58.853Z,12.33
2023-02-06T01:29:29.636Z,13.67
2023-02-06T01:31:59.016Z,12.07
2023-02-06T01:34:28.673Z,12.17
2023-02-06T01:36:57.714Z,11.33
2023-02-06T01:39:27.038Z,10.70
2023-02-06T01:41:56.164Z,15.07
2023-02-06T01:44:27.338Z,11.73
2023-02-06T01:46:59.085Z,11.37
2023-02-06T01:49:36.848Z,15.40
2023-02-06T01:52:17.063Z,10.83
2023-02-06T01:54:55.017Z,14.00
2023-02-06T01:57:26.997Z,11.50
2023-02-06T02:00:03.623Z,11.83
2023-02-06T02:02:49.331Z,11.63
2023-02-06T02:05:20.753Z,12.67
2023-02-06T02:08:01.371Z,9.70
2023-02-06T02:10:33.617Z,10.53
2023-02-06T02:13:03.266Z,10.23
2023-02-06T02:15:51.623Z,10.50
2023-02-06T02:18:47.852Z,10.73
2023-02-06T02:22:18.733Z,15.23
2023-02-06T02:25:18.813Z,13.63
2023-02-06T02:28:23.776Z,11.90
2023-02-06T02:31:32.942Z,12.30
2023-02-06T02:34:58.488Z,12.23
2023-02-06T02:37:41.378Z,11.03
2023-02-06T02:40:24.467Z,12.27
2023-02-06T02:43:06.361Z,13.53
2023-02-06T02:45:44.926Z,12.63
2023-02-06T02:48:20.884Z,13.10
2023-02-06T02:50:52.761Z,14.60
2023-02-06T02:53:23.995Z,10.50
2023-02-06T02:55:54.356Z,12.50
2023-02-06T02:58:33.066Z,12.17
2023-02-06T03:01:10.408Z,12.20
2023-02-06T03:03:44.942Z,11.93
2023-02-06T03:07:04.200Z,11.63
2023-02-06T03:09:51.727Z,9.83
2023-02-06T03:12:29.998Z,13.80
2023-02-06T03:15:12.497Z,11.83
2023-02-06T03:17:50.888Z,11.67
2023-02-06T03:20:21.845Z,11.33
2023-02-06T03:22:55.143Z,11.27
2023-02-06T03:25:34.872Z,11.03
2023-02-06T03:28:12.830Z,11.00
2023-02-06T03:30:46.406Z,12.23
2023-02-06T03:33:20.331Z,12.00
2023-02-06T03:40:18.594Z,14.93
2023-02-06T03:42:57.466Z,12.30
2023-02-06T03:45:32.130Z,10.07
2023-02-06T03:48:04.854Z,11.43
2023-02-06T03:50:36.521Z,13.10
2023-02-06T03:53:06.880Z,12.63
2023-02-06T03:55:41.891Z,11.03
2023-02-06T03:58:16.516Z,12.70
2023-02-06T04:00:48.305Z,13.27
2023-02-06T04:03:20.131Z,12.43
2023-02-06T04:06:15.022Z,10.87
2023-02-06T04:09:58.567Z,10.77
2023-02-06T04:12:29.195Z,10.77
2023-02-06T04:14:58.041Z,12.80
2023-02-06T04:17:43.266Z,12.50
2023-02-06T04:20:16.706Z,11.63
2023-02-06T04:22:46.231Z,11.93
2023-02-06T04:25:15.740Z,12.83
2023-02-06T04:27:52.693Z,13.13
2023-02-06T04:30:22.379Z,12.57
2023-02-06T04:32:56.919Z,12.57
2023-02-06T04:35:26.463Z,12.87
2023-02-06T04:37:56.049Z,12.97
2023-02-06T04:40:25.346Z,22.10
2023-02-06T04:43:01.986Z,25.73
2023-02-06T04:45:31.507Z,30.70
2023-02-06T04:48:07.160Z,34.27
2023-02-06T04:50:47.969Z,32.93
2023-02-06T04:54:13.320Z,27.50
2023-02-06T04:57:05.534Z,25.10
2023-02-06T04:59:36.749Z,27.30
2023-02-06T05:02:06.360Z,28.70
2023-02-06T05:04:35.976Z,26.73
2023-02-06T05:07:05.662Z,23.77
2023-02-06T05:09:40.377Z,21.67
2023-02-06T05:12:18.013Z,24.27
2023-02-06T05:14:48.354Z,29.07
2023-02-06T05:21:48.791Z,313.30
2023-02-06T05:24:19.912Z,200.80
2023-02-06T05:26:49.315Z,55.63
2023-02-06T05:29:49.803Z,50.73
2023-02-06T05:32:54.279Z,76.97
2023-02-06T05:35:23.814Z,83.63
2023-02-06T05:37:53.201Z,117.93
2023-02-06T05:41:13.741Z,100.77
2023-02-06T05:43:43.318Z,79.13
2023-02-06T05:46:14.414Z,77.90
2023-02-06T05:48:47.159Z,68.43
2023-02-06T05:51:18.384Z,66.40
2023-02-06T05:53:56.531Z,66.77
2023-02-06T05:56:25.644Z,73.93
2023-02-06T05:58:54.814Z,72.90
2023-02-06T06:01:26.579Z,67.60
2023-02-06T06:04:32.839Z,62.23
2023-02-06T06:07:02.423Z,55.57
2023-02-06T06:09:31.361Z,56.97
2023-02-06T06:12:03.320Z,48.63
2023-02-06T06:14:32.180Z,55.67
2023-02-06T06:17:03.324Z,53.20
2023-02-06T06:19:32.299Z,95.50
2023-02-06T06:22:01.137Z,74.30
2023-02-06T06:24:30.045Z,69.17
2023-02-06T06:26:59.554Z,63.73
2023-02-06T06:29:28.688Z,58.37
2023-02-06T06:31:57.606Z,119.90
2023-02-06T06:34:27.966Z,153.30
2023-02-06T06:36:56.744Z,115.07
2023-02-06T06:39:25.752Z,105.70
2023-02-06T06:41:54.793Z,99.83
2023-02-06T06:44:23.929Z,90.53
2023-02-06T06:46:53.031Z,105.73
2023-02-06T06:49:49.841Z,93.00
2023-02-06T06:52:24.942Z,59.97
2023-02-06T06:54:54.945Z,55.20
2023-02-06T06:57:24.834Z,65.60
2023-02-06T06:59:54.146Z,71.10
2023-02-06T07:02:22.958Z,66.60
2023-02-06T07:04:53.133Z,52.80
2023-02-06T07:07:22.054Z,49.33
2023-02-06T07:09:50.820Z,42.00
2023-02-06T07:12:19.734Z,44.10
2023-02-06T07:14:48.855Z,39.87
2023-02-06T07:17:17.678Z,41.07
2023-02-06T07:19:48.301Z,38.07
2023-02-06T07:22:40.118Z,34.33
2023-02-06T07:25:09.637Z,38.17
2023-02-06T07:27:38.522Z,32.40
2023-02-06T07:30:08.725Z,35.37
2023-02-06T07:32:37.914Z,39.97
2023-02-06T07:35:08.303Z,36.17
2023-02-06T07:37:55.923Z,47.07
2023-02-06T07:40:27.654Z,71.03
2023-02-06T07:42:58.155Z,106.27
2023-02-06T07:45:35.236Z,239.43
2023-02-06T07:48:06.544Z,217.17
2023-02-06T07:50:36.202Z,113.93
2023-02-06T07:53:07.924Z,150.93
2023-02-06T07:55:39.066Z,87.87
2023-02-06T07:58:08.170Z,74.20
2023-02-06T08:00:36.996Z,80.70
2023-02-06T08:03:06.278Z,87.87
2023-02-06T08:05:38.932Z,77.50
2023-02-06T08:08:10.809Z,67.37
2023-02-06T08:10:40.379Z,64.13
2023-02-06T08:13:09.291Z,47.67
2023-02-06T08:15:38.282Z,48.30
2023-02-06T08:18:09.185Z,48.57
2023-02-06T08:20:38.033Z,46.10
2023-02-06T08:23:08.800Z,47.37
2023-02-06T08:25:37.937Z,38.53
2023-02-06T08:28:07.461Z,38.97
2023-02-06T08:30:37.111Z,38.23
2023-02-06T08:33:06.249Z,48.50
2023-02-06T08:35:35.751Z,47.77
2023-02-06T08:38:04.751Z,43.60
2023-02-06T08:40:35.006Z,45.23
2023-02-06T08:43:03.836Z,39.67
2023-02-06T08:45:32.590Z,43.90
2023-02-06T08:48:01.424Z,46.20
2023-02-06T08:50:30.258Z,46.43
2023-02-06T08:53:00.031Z,48.00
2023-02-06T08:55:28.863Z,51.40
2023-02-06T08:57:59.031Z,53.83
2023-02-06T09:00:28.168Z,54.93
2023-02-06T09:02:57.561Z,46.33
2023-02-06T09:05:26.519Z,51.10
2023-02-06T09:07:55.384Z,50.43
2023-02-06T09:10:27.904Z,51.10
2023-02-06T09:12:58.546Z,54.83
2023-02-06T09:15:27.509Z,49.27
2023-02-06T09:17:56.427Z,55.00
2023-02-06T09:20:26.670Z,53.60
2023-02-06T09:22:55.537Z,52.17
2023-02-06T09:25:24.309Z,57.90
2023-02-06T09:27:53.237Z,54.00
2023-02-06T09:30:23.742Z,50.27
2023-02-06T09:32:52.699Z,55.10
2023-02-06T09:35:21.432Z,52.97
2023-02-06T09:37:50.233Z,49.13
2023-02-06T09:40:27.056Z,59.60
2023-02-06T09:42:57.593Z,56.13
2023-02-06T09:45:31.289Z,56.33
2023-02-06T09:48:16.223Z,52.47
2023-02-06T09:50:58.127Z,52.47
2023-02-06T09:53:41.811Z,52.40
2023-02-06T09:56:22.882Z,55.50
2023-02-06T09:59:02.885Z,56.07
2023-02-06T10:01:43.208Z,54.57
2023-02-06T10:04:47.797Z,55.57
2023-02-06T10:07:38.814Z,52.40
2023-02-06T10:10:16.791Z,51.63
2023-02-06T10:12:55.517Z,52.67
2023-02-06T10:18:32.203Z,58.87
2023-02-06T10:21:06.625Z,55.30
2023-02-06T10:23:47.474Z,59.60
2023-02-06T10:26:19.080Z,55.00
2023-02-06T10:28:52.531Z,58.77
2023-02-06T10:31:55.899Z,50.23
2023-02-06T10:34:56.333Z,46.33
2023-02-06T10:37:50.239Z,48.53
2023-02-06T10:40:36.635Z,45.43
2023-02-06T10:43:21.091Z,44.80
2023-02-06T10:46:04.119Z,45.80
2023-02-06T10:48:42.420Z,45.80
2023-02-06T10:51:20.951Z,46.90
2023-02-06T10:53:54.986Z,47.30
2023-02-06T10:56:29.935Z,44.07
2023-02-06T10:59:03.282Z,40.27
2023-02-06T11:01:38.632Z,36.30
2023-02-06T11:04:16.883Z,43.70
2023-02-06T11:06:47.617Z,41.40
2023-02-06T11:09:17.217Z,36.37
2023-02-06T11:11:48.874Z,38.93
2023-02-06T11:14:28.469Z,32.60
2023-02-06T11:17:01.599Z,37.13
2023-02-06T11:19:40.516Z,36.57
2023-02-06T11:22:26.946Z,39.60
2023-02-06T11:25:06.192Z,35.33
2023-02-06T11:27:37.397Z,35.53
2023-02-06T11:30:26.349Z,39.03
2023-02-06T11:33:04.646Z,34.67
2023-02-06T11:35:39.373Z,35.90
2023-02-06T11:38:25.279Z,39.57
2023-02-06T11:41:04.849Z,36.97
2023-02-06T11:43:47.669Z,42.20
2023-02-06T11:46:40.537Z,41.63
2023-02-06T11:49:29.581Z,37.07
2023-02-06T11:52:06.190Z,36.27
2023-02-06T11:54:56.648Z,35.70
2023-02-06T11:57:47.297Z,33.93
2023-02-06T12:00:25.950Z,36.93
2023-02-06T12:03:03.757Z,36.53
2023-02-06T12:05:43.647Z,39.23
2023-02-06T12:09:49.098Z,34.50
2023-02-06T12:13:07.489Z,39.30
2023-02-06T12:19:51.062Z,33.27
2023-02-06T12:22:24.834Z,34.10
2023-02-06T12:24:56.773Z,33.87
2023-02-06T12:27:39.263Z,36.97
2023-02-06T12:30:38.304Z,28.47
2023-02-06T12:33:17.355Z,29.40
2023-02-06T12:36:17.548Z,30.17
2023-02-06T12:38:54.788Z,25.40
2023-02-06T12:41:59.580Z,19.97
2023-02-06T12:44:35.213Z,23.83
2023-02-06T12:47:24.361Z,24.67
2023-02-06T12:50:01.915Z,24.20
2023-02-06T12:52:41.706Z,25.03
2023-02-06T12:55:23.110Z,24.13
2023-02-06T12:57:57.841Z,28.50
2023-02-06T13:01:20.830Z,23.33
2023-02-06T13:03:59.355Z,26.37
2023-02-06T13:06:35.157Z,42.37
2023-02-06T13:09:09.328Z,29.63
2023-02-06T13:11:42.753Z,37.47
2023-02-06T13:14:22.794Z,31.00
2023-02-06T13:17:00.912Z,32.43
2023-02-06T13:19:54.843Z,31.70
2023-02-06T13:22:43.671Z,32.60
2023-02-06T13:26:10.651Z,32.10
2023-02-06T13:29:01.510Z,31.67
2023-02-06T13:32:28.867Z,30.10
2023-02-06T13:35:15.568Z,22.67
2023-02-06T13:37:48.511Z,25.50
2023-02-06T13:40:32.303Z,24.13
2023-02-06T13:43:10.508Z,19.83
2023-02-06T13:46:12.306Z,18.03
2023-02-06T13:49:30.041Z,22.50
2023-02-06T13:52:16.408Z,23.80
2023-02-06T13:55:06.014Z,19.20
2023-02-06T13:58:05.106Z,19.67
2023-02-06T14:00:44.397Z,20.93
2023-02-06T14:03:23.162Z,19.57
2023-02-06T14:06:04.048Z,20.77
2023-02-06T14:08:49.620Z,21.33
2023-02-06T14:12:31.773Z,18.30
2023-02-06T14:15:29.328Z,16.87
2023-02-06T14:18:41.785Z,17.13
2023-02-06T14:21:28.503Z,16.70
2023-02-06T14:24:51.040Z,21.40
2023-02-06T14:27:55.062Z,20.90
2023-02-06T14:30:44.221Z,22.23
2023-02-06T14:33:42.873Z,19.43
2023-02-06T14:36:44.714Z,20.20
2023-02-06T14:39:41.203Z,20.97
2023-02-06T14:42:39.720Z,20.57
2023-02-06T14:45:35.964Z,20.27
2023-02-06T14:48:07.933Z,23.00
2023-02-06T14:50:42.282Z,19.17
2023-02-06T14:53:21.207Z,18.57
2023-02-06T14:55:50.516Z,19.73
2023-02-06T14:58:26.525Z,17.67
2023-02-06T15:01:14.148Z,18.50
2023-02-06T15:03:43.398Z,18.20
2023-02-06T15:06:26.944Z,19.40
2023-02-06T15:08:56.861Z,19.23
2023-02-06T15:11:32.631Z,22.87
2023-02-06T15:14:05.310Z,18.90
2023-02-06T15:16:47.948Z,18.80
2023-02-06T15:19:21.411Z,21.40
2023-02-06T15:22:02.294Z,20.30
2023-02-06T15:25:51.850Z,22.77
2023-02-06T15:28:27.639Z,23.27
2023-02-06T15:31:01.833Z,21.70
2023-02-06T15:33:34.216Z,21.13
2023-02-06T15:36:05.390Z,19.53
2023-02-06T15:38:37.479Z,21.83
2023-02-06T15:41:09.770Z,21.30
2023-02-06T15:43:39.051Z,22.40
2023-02-06T15:46:09.457Z,20.23
2023-02-06T15:48:43.833Z,23.40
2023-02-06T15:51:24.329Z,26.70
2023-02-06T15:54:09.800Z,23.17
2023-02-06T15:56:44.708Z,22.90
2023-02-06T15:59:24.214Z,24.33
2023-02-06T16:01:55.572Z,28.13
2023-02-06T16:04:30.515Z,26.97
2023-02-06T16:07:08.412Z,25.30
2023-02-06T16:09:51.128Z,26.57
2023-02-06T16:12:21.413Z,26.53
2023-02-06T16:14:58.378Z,27.67
2023-02-06T16:17:34.792Z,24.67
2023-02-06T16:20:08.464Z,22.83
2023-02-06T16:22:40.321Z,21.17
2023-02-06T16:25:25.862Z,23.47
2023-02-06T16:27:58.275Z,24.37
2023-02-06T16:30:31.320Z,21.33
2023-02-06T16:33:10.673Z,24.77
2023-02-06T16:35:40.475Z,23.83
2023-02-06T16:38:12.663Z,31.17
2023-02-06T16:40:43.214Z,27.30
2023-02-06T16:43:13.506Z,24.37
2023-02-06T16:45:42.635Z,27.23
2023-02-06T16:48:15.148Z,32.43
2023-02-06T16:50:45.319Z,34.57
2023-02-06T16:53:21.496Z,33.80
2023-02-06T16:55:56.173Z,31.57
2023-02-06T16:58:30.313Z,57.07
2023-02-06T17:00:59.812Z,42.17
2023-02-06T17:03:32.572Z,33.13
2023-02-06T17:06:02.015Z,33.17
2023-02-06T17:08:39.535Z,26.90
2023-02-06T17:11:11.406Z,30.00
2023-02-06T17:13:41.632Z,27.97
2023-02-06T17:16:17.634Z,28.13
2023-02-06T17:18:47.558Z,29.53
2023-02-06T17:21:19.394Z,24.93
2023-02-06T17:23:49.265Z,32.43
2023-02-06T17:26:22.609Z,36.43
2023-02-06T17:28:53.069Z,30.97
2023-02-06T17:31:23.448Z,31.27
2023-02-06T17:33:52.373Z,34.17
2023-02-06T17:36:29.552Z,36.40
2023-02-06T17:38:59.246Z,30.13
2023-02-06T17:41:31.383Z,30.20
2023-02-06T17:44:01.205Z,29.10
2023-02-06T17:46:31.269Z,34.57
2023-02-06T17:49:14.679Z,28.27
2023-02-06T17:51:48.837Z,33.60
2023-02-06T17:54:22.239Z,27.40
2023-02-06T17:57:20.582Z,28.53
2023-02-06T17:59:55.569Z,33.07
2023-02-06T18:02:25.851Z,37.60
2023-02-06T18:04:55.654Z,34.90
2023-02-06T18:07:25.539Z,30.93
2023-02-06T18:09:54.750Z,34.30
2023-02-06T18:12:25.083Z,34.33
2023-02-06T18:14:54.003Z,33.80
2023-02-06T18:17:38.864Z,44.73
2023-02-06T18:20:20.695Z,40.00
2023-02-06T18:22:55.685Z,42.13
2023-02-06T18:25:26.009Z,55.00
2023-02-06T18:28:07.750Z,59.97
2023-02-06T18:30:37.642Z,53.57
2023-02-06T18:33:06.877Z,54.10
2023-02-06T18:35:39.585Z,56.30
2023-02-06T18:38:10.186Z,44.60
2023-02-06T18:40:39.960Z,45.63
2023-02-06T18:43:09.475Z,51.83
2023-02-06T18:45:40.571Z,73.13
2023-02-06T18:48:12.785Z,69.03
2023-02-06T18:50:47.726Z,72.10
2023-02-06T18:53:18.526Z,69.57
2023-02-06T18:56:00.805Z,95.13
2023-02-06T18:58:31.438Z,73.77
2023-02-06T19:01:00.576Z,83.77
2023-02-06T19:03:29.586Z,51.03
2023-02-06T19:05:58.501Z,50.37
2023-02-06T19:08:28.753Z,40.00
2023-02-06T19:10:58.928Z,69.70
2023-02-06T19:13:28.008Z,63.83
2023-02-06T19:16:07.479Z,58.40
2023-02-06T19:18:41.609Z,155.90
2023-02-06T19:21:15.794Z,140.37
2023-02-06T19:23:46.211Z,96.00
2023-02-06T19:26:17.878Z,38.67
2023-02-06T19:28:47.036Z,37.30
2023-02-06T19:31:23.761Z,34.03
2023-02-06T19:33:55.362Z,40.03
2023-02-06T19:36:26.070Z,42.37
2023-02-06T19:38:59.732Z,58.70
2023-02-06T19:41:34.172Z,41.30
2023-02-06T19:44:10.995Z,42.70
2023-02-06T19:46:41.691Z,43.40
2023-02-06T19:49:12.661Z,41.30
2023-02-06T19:51:44.846Z,47.37
2023-02-06T19:54:14.338Z,47.77
2023-02-06T19:56:47.194Z,53.07
2023-02-06T19:59:22.984Z,50.23
2023-02-06T20:01:58.135Z,54.43
2023-02-06T20:04:32.387Z,49.90
2023-02-06T20:07:02.911Z,44.60
2023-02-06T20:09:32.665Z,43.57
2023-02-06T20:12:02.401Z,47.77
2023-02-06T20:14:32.591Z,52.70
2023-02-06T20:17:10.883Z,41.93
2023-02-06T20:19:40.745Z,38.60
2023-02-06T20:22:10.828Z,45.90
2023-02-06T20:24:41.461Z,42.87
2023-02-06T20:27:14.171Z,37.10
2023-02-06T20:29:46.063Z,40.00
2023-02-06T20:32:19.687Z,37.50
2023-02-06T20:34:49.282Z,37.97
2023-02-06T20:37:19.288Z,36.37
2023-02-06T20:39:49.408Z,37.37
2023-02-06T20:42:19.634Z,38.73
2023-02-06T20:44:49.553Z,33.47
2023-02-06T20:47:20.033Z,40.77
2023-02-06T20:49:53.010Z,42.97
2023-02-06T20:52:22.436Z,66.03
2023-02-06T20:54:51.245Z,69.83
2023-02-06T20:57:22.433Z,75.77
2023-02-06T20:59:51.139Z,68.33
2023-02-06T21:02:28.378Z,63.37
2023-02-06T21:04:57.404Z,65.90
2023-02-06T21:07:26.768Z,67.90
2023-02-06T21:09:56.521Z,67.20
2023-02-06T21:12:25.271Z,58.67
2023-02-06T21:14:53.994Z,45.07
2023-02-06T21:17:24.659Z,45.27
2023-02-06T21:19:59.480Z,42.13
2023-02-06T21:22:28.200Z,47.50
2023-02-06T21:24:56.932Z,37.60
2023-02-06T21:27:25.649Z,40.07
2023-02-06T21:29:54.476Z,41.03
2023-02-06T21:32:24.619Z,37.70
2023-02-06T21:34:53.355Z,34.43
2023-02-06T21:37:22.646Z,38.40
2023-02-06T21:39:51.503Z,38.33
2023-02-06T21:42:26.238Z,33.27
2023-02-06T21:44:55.016Z,30.33
2023-02-06T21:47:25.081Z,30.17
2023-02-06T21:49:53.775Z,32.97
2023-02-06T21:52:22.601Z,32.17
2023-02-06T21:54:51.377Z,33.80
2023-02-06T21:57:20.154Z,33.63
2023-02-06T21:59:48.821Z,30.47
2023-02-06T22:02:17.526Z,26.60
2023-02-06T22:04:47.805Z,27.87
2023-02-06T22:07:16.862Z,27.27
2023-02-06T22:09:45.783Z,33.13
2023-02-06T22:12:14.490Z,36.73
2023-02-06T22:14:43.203Z,31.40
2023-02-06T22:17:12.108Z,31.70
2023-02-06T22:19:40.937Z,28.27
2023-02-06T22:22:12.609Z,32.97
2023-02-06T22:24:41.540Z,29.10
2023-02-06T22:27:10.239Z,28.50
2023-02-06T22:29:39.113Z,28.27
2023-02-06T22:32:07.787Z,27.23
2023-02-06T22:34:36.537Z,27.33
2023-02-06T22:37:05.337Z,29.17
2023-02-06T22:39:35.951Z,27.23
2023-02-06T22:42:04.979Z,28.07
2023-02-06T22:44:33.699Z,28.60
2023-02-06T22:47:02.457Z,24.07
2023-02-06T22:49:31.328Z,26.40
2023-02-06T22:52:00.047Z,28.10
2023-02-06T22:54:28.867Z,21.43
2023-02-06T22:56:58.934Z,23.20
2023-02-06T22:59:27.919Z,25.03
2023-02-06T23:01:59.944Z,25.37
2023-02-06T23:04:34.677Z,24.53
2023-02-06T23:07:03.570Z,24.30
2023-02-06T23:09:35.705Z,22.77
2023-02-06T23:12:09.670Z,25.43
2023-02-06T23:14:38.637Z,23.63
2023-02-06T23:17:07.418Z,25.03
2023-02-06T23:19:36.202Z,26.90
2023-02-06T23:22:08.014Z,23.97
2023-02-06T23:24:36.800Z,24.90
2023-02-06T23:27:06.938Z,22.87
2023-02-06T23:29:35.685Z,26.43
2023-02-06T23:32:04.444Z,28.23
2023-02-06T23:34:33.161Z,28.90
2023-02-06T23:37:01.860Z,26.30
2023-02-06T23:39:31.261Z,27.33
2023-02-06T23:42:00.114Z,31.60
2023-02-06T23:44:30.212Z,25.40
2023-02-06T23:46:59.075Z,27.70
2023-02-06T23:49:27.791Z,25.83
2023-02-06T23:51:56.463Z,25.10
2023-02-06T23:54:25.145Z,25.97
2023-02-06T23:56:55.093Z,27.13
2023-02-06T23:59:23.806Z,25.57
